createdAt,value
2022-10-24T00:00:01.214Z,101569.72
2022-10-24T00:05:00.005Z,101567.63
2022-10-24T00:09:58.768Z,101565.25
2022-10-24T00:14:57.527Z,101562.13
2022-10-24T00:19:59.078Z,101565.31
2022-10-24T00:24:57.957Z,101563.72
2022-10-24T00:29:56.963Z,101560.50
2022-10-24T00:34:57.318Z,101550.44
2022-10-24T00:39:56.476Z,101566.25
2022-10-24T00:44:55.478Z,101590.97
2022-10-24T00:50:00.981Z,101589.31
2022-10-24T00:55:02.893Z,101575.81
2022-10-24T01:00:06.953Z,101581.97
2022-10-24T01:05:09.263Z,101572.22
2022-10-24T01:10:20.374Z,101567.19
2022-10-24T01:15:24.633Z,101563.75
2022-10-24T01:20:46.247Z,101558.03
2022-10-24T01:26:00.397Z,101544.22
2022-10-24T01:31:08.781Z,101553.09
2022-10-24T01:36:11.428Z,101555.00
2022-10-24T01:41:14.666Z,101551.59
2022-10-24T01:46:19.816Z,101563.63
2022-10-24T01:51:22.531Z,101560.88
2022-10-24T01:56:21.396Z,101562.34
2022-10-24T02:01:25.838Z,101560.91
2022-10-24T02:06:31.711Z,101564.59
2022-10-24T02:11:31.465Z,101565.63
2022-10-24T02:16:32.315Z,101557.59
2022-10-24T02:21:37.947Z,101561.75
2022-10-24T02:26:44.149Z,101544.91
2022-10-24T02:31:49.664Z,101553.81
2022-10-24T02:36:51.337Z,101553.81
2022-10-24T02:41:52.528Z,101562.03
2022-10-24T02:46:55.605Z,101565.34
2022-10-24T02:51:55.111Z,101555.19
2022-10-24T02:56:57.932Z,101558.78
2022-10-24T03:01:58.374Z,101557.06
2022-10-24T03:06:57.270Z,101567.66
2022-10-24T03:11:56.118Z,101567.06
2022-10-24T03:16:55.028Z,101561.13
2022-10-24T03:21:55.327Z,101564.84
2022-10-24T03:26:54.355Z,101562.28
2022-10-24T03:31:53.345Z,101562.47
2022-10-24T03:36:52.291Z,101568.84
2022-10-24T03:41:53.271Z,101569.97
2022-10-24T03:46:52.358Z,101580.25
2022-10-24T03:51:51.281Z,101579.59
2022-10-24T03:56:50.401Z,101577.88
2022-10-24T04:01:50.978Z,101561.38
2022-10-24T04:06:49.888Z,101580.09
2022-10-24T04:11:49.260Z,101569.66
2022-10-24T04:16:48.269Z,101581.16
2022-10-24T04:21:49.120Z,101572.63
2022-10-24T04:26:48.035Z,101569.34
2022-10-24T04:31:47.045Z,101574.81
2022-10-24T04:36:48.425Z,101569.44
2022-10-24T04:41:47.566Z,101561.41
2022-10-24T04:46:50.556Z,101568.59
2022-10-24T04:51:51.606Z,101576.59
2022-10-24T04:56:50.710Z,101588.34
2022-10-24T05:01:49.664Z,101584.22
2022-10-24T05:06:48.529Z,101588.78
2022-10-24T05:11:48.575Z,101592.63
2022-10-24T05:16:48.536Z,101595.31
2022-10-24T05:21:48.016Z,101596.81
2022-10-24T05:26:49.833Z,101578.06
2022-10-24T05:31:48.712Z,101590.19
2022-10-24T05:36:47.921Z,101603.09
2022-10-24T05:41:48.296Z,101605.63
2022-10-24T05:46:48.553Z,101608.47
2022-10-24T05:51:47.273Z,101612.75
2022-10-24T05:56:46.467Z,101612.31
2022-10-24T06:01:46.776Z,101620.72
2022-10-24T06:06:46.799Z,101615.88
2022-10-24T06:11:45.674Z,101625.16
2022-10-24T06:16:44.522Z,101625.56
2022-10-24T06:21:44.682Z,101631.13
2022-10-24T06:26:43.619Z,101628.78
2022-10-24T06:31:42.417Z,101631.88
2022-10-24T06:41:46.438Z,101641.03
2022-10-24T06:46:46.490Z,101640.56
2022-10-24T06:51:45.576Z,101634.13
2022-10-24T06:56:45.822Z,101638.06
2022-10-24T07:01:45.281Z,101635.28
2022-10-24T07:06:44.338Z,101633.66
2022-10-24T07:11:43.120Z,101629.22
2022-10-24T07:16:43.351Z,101635.88
2022-10-24T07:21:42.072Z,101645.84
2022-10-24T07:26:40.921Z,101654.13
2022-10-24T07:31:39.711Z,101653.69
2022-10-24T07:36:41.575Z,101639.97
2022-10-24T07:41:43.235Z,101636.72
2022-10-24T07:46:43.155Z,101636.31
2022-10-24T07:51:46.471Z,101627.19
2022-10-24T07:56:45.327Z,101607.53
2022-10-24T08:01:44.263Z,101602.22
2022-10-24T08:06:44.873Z,101612.50
2022-10-24T08:11:45.102Z,101603.97
2022-10-24T08:16:43.874Z,101612.13
2022-10-24T08:21:42.583Z,101613.06
2022-10-24T08:26:41.487Z,101625.78
2022-10-24T08:31:42.186Z,101623.34
2022-10-24T08:36:41.133Z,101624.56
2022-10-24T08:41:43.782Z,101613.44
2022-10-24T08:46:50.500Z,101614.34
2022-10-24T08:51:54.576Z,101614.69
2022-10-24T08:56:55.837Z,101613.53
2022-10-24T09:02:03.414Z,101606.28
2022-10-24T09:07:04.246Z,101597.72
2022-10-24T09:12:05.873Z,101592.19
2022-10-24T09:17:16.002Z,101580.16
2022-10-24T09:22:17.998Z,101576.69
2022-10-24T09:27:23.598Z,101560.06
2022-10-24T09:32:27.369Z,101561.59
2022-10-24T09:37:44.306Z,101561.38
2022-10-24T09:42:52.014Z,101556.03
2022-10-24T09:47:58.044Z,101552.84
2022-10-24T09:52:59.436Z,101541.44
2022-10-24T09:58:00.349Z,101545.16
2022-10-24T10:03:03.521Z,101549.38
2022-10-24T10:08:12.924Z,101536.34
2022-10-24T10:13:24.100Z,101519.69
2022-10-24T10:18:26.324Z,101517.22
2022-10-24T10:23:27.147Z,101501.63
2022-10-24T10:28:26.050Z,101503.94
2022-10-24T10:33:32.610Z,101503.91
2022-10-24T10:38:44.795Z,101498.69
2022-10-24T10:43:55.143Z,101488.59
2022-10-24T10:49:14.183Z,101487.84
2022-10-24T10:54:33.744Z,101497.88
2022-10-24T10:59:47.316Z,101495.41
2022-10-24T11:04:58.298Z,101484.94
2022-10-24T11:10:01.134Z,101478.31
2022-10-24T11:15:04.984Z,101474.84
2022-10-24T11:20:11.939Z,101466.09
2022-10-24T11:25:22.168Z,101459.91
2022-10-24T11:30:30.043Z,101448.16
2022-10-24T11:35:33.317Z,101434.59
2022-10-24T11:40:43.379Z,101432.53
2022-10-24T11:45:55.281Z,101424.19
2022-10-24T11:51:18.607Z,101416.59
2022-10-24T11:56:27.430Z,101417.66
2022-10-24T12:01:53.065Z,101419.94
2022-10-24T12:07:23.514Z,101414.50
2022-10-24T12:12:42.867Z,101412.81
2022-10-24T12:18:05.940Z,101406.91
2022-10-24T12:23:08.715Z,101398.72
2022-10-24T12:28:14.407Z,101398.97
2022-10-24T12:33:25.661Z,101386.78
2022-10-24T12:39:08.048Z,101370.31
2022-10-24T12:44:51.970Z,101366.63
2022-10-24T12:49:52.034Z,101365.50
2022-10-24T12:54:56.673Z,101362.28
2022-10-24T12:59:59.751Z,101368.09
2022-10-24T13:05:12.193Z,101357.38
2022-10-24T13:10:27.003Z,101354.66
2022-10-24T13:15:59.576Z,101348.97
2022-10-24T13:21:46.856Z,101345.19
2022-10-24T13:26:53.712Z,101337.56
2022-10-24T13:31:55.537Z,101340.97
2022-10-24T13:37:09.713Z,101332.97
2022-10-24T13:42:16.366Z,101339.97
2022-10-24T13:47:31.286Z,101333.25
2022-10-24T13:52:37.806Z,101330.19
2022-10-24T13:57:55.560Z,101331.22
2022-10-24T14:03:04.452Z,101319.50
2022-10-24T14:08:12.322Z,101329.03
2022-10-24T14:13:19.197Z,101323.69
2022-10-24T14:18:24.404Z,101315.19
2022-10-24T14:23:34.339Z,101312.81
2022-10-24T14:28:52.044Z,101309.56
2022-10-24T14:34:00.277Z,101308.28
2022-10-24T14:39:04.359Z,101306.03
2022-10-24T14:44:19.294Z,101314.00
2022-10-24T14:49:29.871Z,101306.56
2022-10-24T14:54:36.068Z,101304.34
2022-10-24T15:00:25.080Z,101305.78
2022-10-24T15:05:35.027Z,101302.44
2022-10-24T15:10:50.356Z,101301.38
2022-10-24T15:15:57.184Z,101300.66
2022-10-24T15:21:07.994Z,101299.75
2022-10-24T15:26:13.638Z,101303.63
2022-10-24T15:31:20.220Z,101293.19
2022-10-24T15:36:24.105Z,101303.75
2022-10-24T15:41:23.361Z,101305.41
2022-10-24T15:46:24.745Z,101305.19
2022-10-24T15:51:26.725Z,101305.19
2022-10-24T15:56:26.417Z,101308.50
2022-10-24T16:01:29.669Z,101312.09
2022-10-24T16:06:30.634Z,101317.53
2022-10-24T16:11:31.186Z,101303.91
2022-10-24T16:16:30.526Z,101321.25
2022-10-24T16:21:31.215Z,101323.03
2022-10-24T16:26:31.360Z,101325.22
2022-10-24T16:31:31.152Z,101325.41
2022-10-24T16:36:35.713Z,101321.22
2022-10-24T16:41:34.973Z,101321.66
2022-10-24T16:46:43.692Z,101326.59
2022-10-24T16:51:52.250Z,101328.47
2022-10-24T16:57:17.758Z,101332.31
2022-10-24T17:02:19.086Z,101334.88
2022-10-24T17:07:19.942Z,101341.78
2022-10-24T17:12:22.388Z,101332.59
2022-10-24T17:17:27.767Z,101335.69
2022-10-24T17:27:31.131Z,101337.34
2022-10-24T17:32:33.152Z,101331.97
2022-10-24T17:37:45.442Z,101336.47
2022-10-24T17:42:49.738Z,101325.31
2022-10-24T17:47:49.630Z,101330.94
2022-10-24T17:52:52.543Z,101334.38
2022-10-24T17:57:54.721Z,101325.34
2022-10-24T18:02:56.886Z,101324.31
2022-10-24T18:08:01.968Z,101319.66
2022-10-24T18:13:02.355Z,101316.19
2022-10-24T18:18:02.259Z,101321.75
2022-10-24T18:23:03.832Z,101317.59
2022-10-24T18:28:05.423Z,101317.94
2022-10-24T18:33:04.603Z,101311.69
2022-10-24T18:38:05.284Z,101299.59
2022-10-24T18:43:06.249Z,101298.00
2022-10-24T18:48:06.154Z,101288.44
2022-10-24T18:53:10.283Z,101290.38
2022-10-24T18:58:18.083Z,101290.63
2022-10-24T19:03:25.145Z,101291.03
2022-10-24T19:08:27.990Z,101291.41
2022-10-24T19:13:28.646Z,101291.91
2022-10-24T19:18:34.652Z,101297.78
2022-10-24T19:23:36.231Z,101300.38
2022-10-24T19:28:35.608Z,101300.28
2022-10-24T19:33:35.165Z,101296.44
2022-10-24T19:38:39.823Z,101291.56
2022-10-24T19:43:39.596Z,101286.72
2022-10-24T19:48:38.450Z,101288.81
2022-10-24T19:53:40.963Z,101283.81
2022-10-24T19:58:41.173Z,101274.47
2022-10-24T20:03:40.651Z,101279.25
2022-10-24T20:08:41.314Z,101279.47
2022-10-24T20:13:40.632Z,101274.63
2022-10-24T20:19:13.836Z,101266.16
2022-10-24T20:24:40.405Z,101260.56
2022-10-24T20:30:13.672Z,101259.34
2022-10-24T20:35:44.205Z,101258.28
2022-10-24T20:46:49.029Z,101251.38
2022-10-24T20:52:07.857Z,101251.84
2022-10-24T20:57:42.989Z,101251.22
2022-10-24T21:02:55.266Z,101253.28
2022-10-24T21:08:15.106Z,101258.88
2022-10-24T21:13:42.154Z,101246.72
2022-10-24T21:19:18.986Z,101244.31
2022-10-24T21:30:27.474Z,101237.16
2022-10-24T21:35:41.637Z,101237.63
2022-10-24T21:47:08.064Z,101235.06
2022-10-24T21:57:53.874Z,101223.31
2022-10-24T22:02:54.865Z,101227.03
2022-10-24T22:08:14.163Z,101228.47
2022-10-24T22:13:35.388Z,101225.44
2022-10-24T22:18:36.298Z,101226.66
2022-10-24T22:23:35.980Z,101219.00
2022-10-24T22:28:36.651Z,101222.63
2022-10-24T22:33:42.134Z,101227.44
2022-10-24T22:38:41.451Z,101230.53
2022-10-24T22:43:40.802Z,101231.03
2022-10-24T22:48:43.273Z,101221.41
2022-10-24T22:53:42.692Z,101220.38
2022-10-24T22:58:43.632Z,101220.09
2022-10-24T23:04:00.197Z,101220.78
2022-10-24T23:08:59.071Z,101220.66
2022-10-24T23:13:58.387Z,101222.38
2022-10-24T23:18:59.242Z,101215.22
2022-10-24T23:23:58.596Z,101224.19
2022-10-24T23:29:05.075Z,101218.25
2022-10-24T23:34:05.911Z,101219.44
2022-10-24T23:39:05.325Z,101228.50
2022-10-24T23:44:06.483Z,101235.84
2022-10-24T23:49:17.676Z,101230.88
2022-10-24T23:54:20.905Z,101231.44
2022-10-24T23:59:19.729Z,101236.66
